Time;durP1;ratioP1;P1;durP2;ratioP2;P2;SDS_P1;SDS_P2;PMS_P1;PMS_P2;Temp;Humidity;BMP_temperature;BMP_pressure;BME280_temperature;BME280_humidity;BME280_pressure;Samples;Min_cycle;Max_cycle;Signal;HPM_P1;HPM_P2
2022/10/10 00:03:12;;;;;;;94.53;45.27;;;6.50;99.90;;;;;;10412860;28;20287;-83
2022/10/10 00:08:33;;;;;;;85.23;42.50;;;6.50;99.90;;;;;;10421869;28;20200;-83
2022/10/10 00:13:55;;;;;;;87.03;42.60;;;6.40;99.90;;;;;;10424474;28;20519;-83
2022/10/10 00:19:16;;;;;;;65.50;34.17;;;6.50;1.00;;;;;;10428276;28;20204;-83
2022/10/10 00:24:38;;;;;;;59.20;31.37;;;6.50;1.00;;;;;;10407512;28;20222;-83
2022/10/10 00:29:59;;;;;;;53.57;29.37;;;6.40;1.00;;;;;;10414143;28;20229;-83
2022/10/10 00:35:20;;;;;;;54.77;30.57;;;6.40;99.90;;;;;;10428464;28;20227;-83
2022/10/10 00:40:47;;;;;;;65.03;31.03;;;6.40;99.90;;;;;;10428122;28;20255;-83
2022/10/10 00:46:09;;;;;;;53.70;29.53;;;;;;;;;;10427739;28;20275;-82
2022/10/10 00:51:31;;;;;;;59.83;29.90;;;;;;;;;;10428742;28;20224;-83
2022/10/10 00:56:55;;;;;;;54.93;29.43;;;;;;;;;;10413714;28;20291;-83
2022/10/10 01:02:16;;;;;;;51.80;30.20;;;6.20;1.00;;;;;;10427315;28;20252;-83
2022/10/10 01:07:38;;;;;;;58.20;29.73;;;6.20;1.00;;;;;;10457382;28;20192;-83
2022/10/10 01:13:11;;;;;;;66.47;31.63;;;6.20;99.90;;;;;;10426543;28;20250;-83
2022/10/10 01:19:17;;;;;;;66.93;31.40;;;6.20;1.00;;;;;;10422100;28;20208;-83
2022/10/10 01:25:02;;;;;;;49.40;23.10;;;6.20;1.00;;;;;;10411611;28;20203;-83
2022/10/10 01:30:24;;;;;;;37.83;20.77;;;6.30;1.00;;;;;;10439392;28;20306;-83
2022/10/10 01:35:58;;;;;;;33.63;19.80;;;6.30;1.00;;;;;;10440258;28;20223;-83
2022/10/10 01:41:26;;;;;;;33.97;18.33;;;6.30;1.00;;;;;;10425401;28;20378;-83
2022/10/10 01:46:47;;;;;;;29.20;17.23;;;6.20;1.00;;;;;;10440448;28;20185;-83
2022/10/10 01:52:20;;;;;;;27.23;17.47;;;6.20;1.00;;;;;;10398337;28;20220;-83
2022/10/10 01:58:06;;;;;;;32.43;17.00;;;6.20;1.00;;;;;;10405412;28;20541;-83
2022/10/10 02:03:36;;;;;;;33.90;19.80;;;6.10;1.00;;;;;;10424494;28;20200;-83
2022/10/10 02:09:03;;;;;;;35.67;19.97;;;6.10;1.00;;;;;;10410893;28;20203;-82
2022/10/10 02:14:32;;;;;;;37.67;20.43;;;6.00;1.00;;;;;;10423655;28;20226;-83
2022/10/10 02:19:57;;;;;;;35.63;19.77;;;6.00;1.00;;;;;;10424208;28;20390;-83
2022/10/10 02:25:22;;;;;;;33.73;19.97;;;;;;;;;;10436983;28;20278;-83
2022/10/10 02:30:44;;;;;;;36.30;21.00;;;;;;;;;;10437365;28;20465;-83
2022/10/10 02:36:07;;;;;;;41.13;20.57;;;;;;;;;;10409016;28;20502;-83
2022/10/10 02:41:29;;;;;;;53.00;22.33;;;;;;;;;;10423156;28;20206;-83
2022/10/10 02:46:50;;;;;;;42.17;20.60;;;7.90;1.00;;;;;;10437448;28;20214;-83
2022/10/10 02:52:13;;;;;;;43.03;19.77;;;5.80;1.00;;;;;;10414854;28;20277;-83
2022/10/10 02:57:35;;;;;;;35.20;17.67;;;5.80;1.00;;;;;;10436896;28;20491;-82
2022/10/10 03:02:56;;;;;;;26.13;14.97;;;5.70;1.00;;;;;;10423292;28;20203;-83
2022/10/10 03:08:20;;;;;;;24.70;13.43;;;5.70;1.00;;;;;;10423447;28;20272;-83
2022/10/10 03:13:42;;;;;;;21.30;12.53;;;;;;;;;;10469566;28;20238;-83
2022/10/10 03:19:07;;;;;;;22.53;12.57;;;;;;;;;;10449881;28;20204;-83
2022/10/10 03:24:28;;;;;;;24.57;12.97;;;;;;;;;;10407555;28;20286;-83
2022/10/10 03:29:49;;;;;;;20.77;11.83;;;5.60;1.00;;;;;;10421651;28;20224;-83
2022/10/10 03:35:11;;;;;;;22.60;13.00;;;5.50;1.00;;;;;;10421952;28;20231;-82
2022/10/10 03:40:33;;;;;;;25.27;13.40;;;5.40;1.00;;;;;;10407550;28;20196;-83
2022/10/10 03:45:54;;;;;;;23.60;13.30;;;5.40;1.00;;;;;;10422095;28;20201;-83
2022/10/10 03:51:15;;;;;;;21.43;12.23;;;5.30;1.00;;;;;;10437911;28;20234;-82
2022/10/10 03:56:37;;;;;;;19.13;12.13;;;5.40;1.00;;;;;;10430060;28;20284;-83
2022/10/10 04:01:58;;;;;;;16.57;10.90;;;5.40;1.00;;;;;;10429592;28;20196;-83
2022/10/10 04:07:19;;;;;;;20.97;12.40;;;5.40;1.00;;;;;;10428908;28;20199;-83
2022/10/10 04:12:41;;;;;;;17.23;11.07;;;5.40;1.00;;;;;;10428532;28;20230;-83
2022/10/10 04:18:02;;;;;;;16.70;10.47;;;5.40;1.00;;;;;;10460540;28;20442;-83
2022/10/10 04:23:23;;;;;;;19.90;12.00;;;5.50;1.00;;;;;;10414741;28;20227;-83
2022/10/10 04:28:45;;;;;;;23.20;12.50;;;5.60;1.00;;;;;;10441926;28;20199;-83
2022/10/10 04:34:06;;;;;;;19.90;11.77;;;5.60;1.00;;;;;;10400933;28;20223;-83
2022/10/10 04:39:27;;;;;;;23.83;14.43;;;5.60;10.60;;;;;;10418815;28;20197;-83
2022/10/10 04:44:49;;;;;;;29.83;17.50;;;5.70;15.80;;;;;;10413906;28;20208;-83
2022/10/10 04:50:10;;;;;;;32.23;18.93;;;5.80;1.00;;;;;;10428881;28;20200;-82
2022/10/10 04:55:31;;;;;;;22.30;15.00;;;5.90;7.40;;;;;;10427394;28;20277;-82
2022/10/10 05:00:54;;;;;;;17.93;13.63;;;5.90;8.10;;;;;;10440287;28;20191;-83
2022/10/10 05:06:16;;;;;;;18.30;12.50;;;5.90;1.00;;;;;;10426962;28;20433;-83
2022/10/10 05:11:37;;;;;;;19.17;11.93;;;5.90;1.30;;;;;;10412689;28;20198;-83
2022/10/10 05:16:58;;;;;;;17.87;12.37;;;5.90;14.30;;;;;;10420346;28;20697;-83
2022/10/10 05:22:44;;;;;;;27.30;15.60;;;5.90;19.30;;;;;;10426048;28;20212;-83
2022/10/10 05:28:06;;;;;;;24.13;14.93;;;5.90;14.80;;;;;;10411262;28;20200;-83
2022/10/10 05:33:27;;;;;;;23.83;15.03;;;5.90;9.80;;;;;;10439909;28;20236;-83
2022/10/10 05:38:49;;;;;;;23.57;14.53;;;6.00;3.80;;;;;;10425685;28;20195;-83
2022/10/10 05:44:10;;;;;;;25.47;15.83;;;6.00;23.30;;;;;;10403617;28;20438;-83
2022/10/10 05:49:32;;;;;;;27.53;17.63;;;6.10;9.30;;;;;;10418288;28;20487;-83
2022/10/10 05:54:53;;;;;;;25.13;15.40;;;6.10;25.80;;;;;;10425345;28;20224;-84
2022/10/10 06:00:14;;;;;;;27.07;16.30;;;6.10;27.30;;;;;;10425028;28;20406;-83
2022/10/10 06:05:36;;;;;;;21.97;16.07;;;6.20;12.40;;;;;;10438724;28;20242;-82
2022/10/10 06:11:09;;;;;;;21.87;15.23;;;6.20;23.60;;;;;;10409853;28;20387;-84
2022/10/10 06:16:31;;;;;;;33.10;20.70;;;6.30;27.10;;;;;;10423274;28;20236;-84
2022/10/10 06:21:52;;;;;;;29.70;19.90;;;6.50;8.00;;;;;;10425228;28;20428;-82
2022/10/10 06:27:14;;;;;;;30.87;19.17;;;6.80;1.00;;;;;;10435579;28;20235;-83
2022/10/10 06:32:35;;;;;;;31.23;20.57;;;7.80;1.00;;;;;;10463898;28;20246;-84
2022/10/10 06:37:56;;;;;;;25.70;17.10;;;9.20;1.00;;;;;;10465201;28;20197;-84
2022/10/10 06:43:19;;;;;;;16.03;11.03;;;;;;;;;;10465070;28;20195;-84
2022/10/10 06:48:41;;;;;;;14.18;9.70;;;11.50;99.90;;;;;;10464979;28;20382;-84
2022/10/10 06:54:03;;;;;;;14.82;9.20;;;11.50;1.00;;;;;;10464252;28;20232;-83
2022/10/10 06:59:24;;;;;;;12.13;7.60;;;12.10;99.90;;;;;;10464215;28;20480;-83
2022/10/10 07:04:46;;;;;;;12.23;8.48;;;13.00;1.00;;;;;;10478372;28;20499;-83
2022/10/10 07:10:09;;;;;;;12.93;8.32;;;13.70;1.00;;;;;;10448832;28;20198;-83
2022/10/10 07:15:30;;;;;;;9.45;7.05;;;14.00;99.90;;;;;;10499757;28;20220;-84
2022/10/10 07:20:57;;;;;;;12.90;8.05;;;14.90;1.00;;;;;;10449606;28;20195;-83
2022/10/10 07:26:21;;;;;;;14.48;8.88;;;14.60;99.90;;;;;;10463179;28;20205;-84
2022/10/10 07:31:42;;;;;;;11.40;7.25;;;14.50;1.00;;;;;;10438120;28;20258;-85
2022/10/10 07:37:05;;;;;;;15.18;8.25;;;15.30;1.00;;;;;;10466515;28;20208;-87
2022/10/10 07:42:26;;;;;;;10.23;7.50;;;16.10;1.00;;;;;;10484620;28;20253;-83
2022/10/10 07:47:48;;;;;;;10.45;6.43;;;16.00;99.90;;;;;;10455867;28;20261;-85
2022/10/10 07:53:10;;;;;;;12.70;7.05;;;15.60;1.00;;;;;;10485455;28;20636;-85
2022/10/10 07:58:33;;;;;;;10.77;5.95;;;16.60;99.90;;;;;;10458785;28;20204;-82
2022/10/10 08:03:56;;;;;;;8.10;5.10;;;16.90;72.50;;;;;;10419085;28;20275;-83
2022/10/10 08:09:17;;;;;;;12.00;6.10;;;17.50;1.00;;;;;;10439245;28;20208;-85
2022/10/10 08:14:38;;;;;;;10.88;4.53;;;18.10;1.00;;;;;;10437753;28;20223;-82
2022/10/10 08:20:00;;;;;;;8.20;4.75;;;19.20;99.90;;;;;;10460069;28;20204;-84
2022/10/10 08:25:21;;;;;;;6.13;4.03;;;18.70;99.90;;;;;;10456831;28;20204;-84
2022/10/10 08:30:42;;;;;;;6.72;3.90;;;19.40;1.00;;;;;;10468429;28;20223;-84
2022/10/10 08:36:14;;;;;;;11.25;4.57;;;19.60;1.00;;;;;;10462149;28;20254;-83
2022/10/10 08:41:51;;;;;;;7.35;5.07;;;20.20;1.00;;;;;;10463554;28;20204;-86
2022/10/10 08:47:17;;;;;;;6.50;4.50;;;20.40;1.00;;;;;;10478176;28;20196;-86
2022/10/10 08:52:53;;;;;;;6.72;3.95;;;20.00;1.00;;;;;;10455859;28;20243;-82
2022/10/10 08:58:37;;;;;;;9.02;6.05;;;20.60;1.00;;;;;;10443419;28;20271;-84
2022/10/10 09:04:01;;;;;;;8.25;4.32;;;20.80;1.00;;;;;;10475970;28;20525;-84
2022/10/10 09:09:42;;;;;;;5.03;3.75;;;;;;;;;;10477726;28;20590;-81
2022/10/10 09:15:13;;;;;;;15.88;6.63;;;;;;;;;;10441789;28;20220;-85
2022/10/10 09:21:05;;;;;;;11.68;5.38;;;18.10;1.00;;;;;;10472631;28;20288;-86
2022/10/10 09:26:32;;;;;;;7.05;4.47;;;19.20;1.00;;;;;;10463756;28;20188;-85
2022/10/10 09:31:59;;;;;;;7.03;4.22;;;19.70;1.00;;;;;;10448245;28;20471;-81
2022/10/10 09:37:49;;;;;;;8.32;3.65;;;19.40;1.00;;;;;;10481836;28;20228;-86
2022/10/10 09:43:18;;;;;;;7.30;4.05;;;19.50;1.00;;;;;;10465043;28;20200;-83
2022/10/10 09:48:42;;;;;;;8.55;3.97;;;19.80;99.90;;;;;;10463458;28;20222;-83
2022/10/10 09:54:06;;;;;;;9.05;4.80;;;21.00;99.90;;;;;;10460833;28;20463;-81
2022/10/10 09:59:46;;;;;;;9.35;4.25;;;20.50;99.90;;;;;;10461134;28;20486;-83
2022/10/10 10:05:22;;;;;;;11.35;5.80;;;20.40;99.90;;;;;;10447610;28;20274;-82
2022/10/10 10:10:44;;;;;;;10.60;4.53;;;;;;;;;;10474931;28;20192;-85
2022/10/10 10:16:10;;;;;;;8.73;4.15;;;21.30;99.90;;;;;;10460779;28;20250;-83
2022/10/10 10:21:45;;;;;;;5.47;3.47;;;21.10;99.90;;;;;;10453596;28;20215;-89
2022/10/10 10:27:21;;;;;;;10.65;7.72;;;21.00;99.90;;;;;;10448201;28;20227;-83
2022/10/10 10:33:03;;;;;;;8.05;5.72;;;21.60;1.00;;;;;;10444072;28;20270;-82
2022/10/10 10:38:42;;;;;;;4.78;3.50;;;22.10;1.00;;;;;;10453957;28;20192;-85
2022/10/10 10:44:27;;;;;;;9.65;5.65;;;22.20;99.90;;;;;;10472804;28;20196;-83
2022/10/10 10:50:12;;;;;;;8.30;4.97;;;21.90;99.90;;;;;;10444795;28;20205;-86
2022/10/10 10:55:50;;;;;;;6.95;3.63;;;22.20;99.90;;;;;;10481609;28;20234;-83
2022/10/10 11:01:25;;;;;;;9.88;6.10;;;;;;;;;;10443398;28;20482;-85
2022/10/10 11:07:15;;;;;;;5.03;3.00;;;23.70;99.90;;;;;;10472470;28;20204;-84
2022/10/10 11:12:47;;;;;;;6.68;3.90;;;23.80;99.90;;;;;;10457657;28;20326;-82
2022/10/10 11:18:20;;;;;;;7.85;4.28;;;23.80;99.90;;;;;;10472811;28;20199;-84
2022/10/10 11:23:55;;;;;;;4.82;3.70;;;;;;;;;;10457650;28;20279;-84
2022/10/10 11:29:56;;;;;;;11.73;6.07;;;24.80;98.30;;;;;;10471758;28;20546;-84
2022/10/10 11:35:52;;;;;;;5.70;3.33;;;24.20;99.90;;;;;;10438750;28;20297;-81
2022/10/10 11:41:30;;;;;;;6.90;3.67;;;24.10;99.90;;;;;;10447966;28;20219;-82
2022/10/10 11:47:12;;;;;;;4.88;3.17;;;24.00;99.90;;;;;;10449552;28;20220;-85
2022/10/10 11:52:42;;;;;;;5.30;3.33;;;24.30;99.90;;;;;;10439908;28;20209;-82
2022/10/10 11:58:04;;;;;;;5.93;2.90;;;24.00;99.90;;;;;;10438060;28;20243;-86
2022/10/10 12:03:25;;;;;;;7.05;4.22;;;24.30;99.90;;;;;;10436866;28;20203;-81
2022/10/10 12:08:58;;;;;;;6.70;4.25;;;24.50;99.90;;;;;;10450217;28;20227;-83
2022/10/10 12:14:21;;;;;;;7.43;4.28;;;24.90;99.90;;;;;;10463764;28;20224;-85
2022/10/10 12:19:45;;;;;;;6.97;3.90;;;24.60;99.90;;;;;;10479150;28;20440;-83
2022/10/10 12:25:22;;;;;;;8.80;3.38;;;24.20;99.90;;;;;;10465820;28;20399;-85
2022/10/10 12:31:06;;;;;;;10.68;4.00;;;24.40;99.90;;;;;;10466575;28;20220;-82
2022/10/10 12:36:27;;;;;;;6.40;4.97;;;24.00;1.00;;;;;;10436948;28;20220;-84
2022/10/10 12:41:55;;;;;;;5.10;3.42;;;23.40;1.00;;;;;;10427645;28;20487;-86
2022/10/10 12:47:17;;;;;;;8.38;3.47;;;24.30;99.90;;;;;;10463381;28;20299;-86
2022/10/10 12:52:50;;;;;;;5.95;3.47;;;23.90;99.90;;;;;;10464304;28;20498;-85
2022/10/10 12:58:38;;;;;;;6.43;4.18;;;23.20;99.90;;;;;;10478809;28;20234;-87
2022/10/10 13:03:59;;;;;;;10.85;5.20;;;22.70;99.90;;;;;;10464302;28;20198;-92
2022/10/10 13:09:24;;;;;;;6.25;3.58;;;22.80;99.90;;;;;;10478052;28;20199;-82
2022/10/10 13:14:45;;;;;;;5.47;4.00;;;22.30;99.90;;;;;;10476552;28;20246;-82
2022/10/10 13:20:24;;;;;;;5.97;4.00;;;21.70;1.00;;;;;;10452572;28;20207;-85
2022/10/10 13:25:45;;;;;;;12.77;8.45;;;20.70;99.90;;;;;;10448634;28;20203;-82
2022/10/10 13:31:13;;;;;;;13.65;6.45;;;;;;;;;;10463573;28;20553;-86
2022/10/10 13:36:36;;;;;;;8.50;5.80;;;20.00;99.90;;;;;;10463619;28;20318;-84
2022/10/10 13:41:57;;;;;;;7.53;5.15;;;19.10;99.90;;;;;;10462593;28;20525;-86
2022/10/10 13:47:41;;;;;;;9.63;4.20;;;18.60;99.90;;;;;;10449400;28;20199;-87
2022/10/10 13:53:30;;;;;;;7.15;4.85;;;18.40;1.00;;;;;;10476490;28;20212;-86
2022/10/10 13:59:07;;;;;;;5.90;4.50;;;18.40;1.00;;;;;;10452975;28;20206;-88
2022/10/10 14:04:32;;;;;;;8.20;5.03;;;17.90;1.00;;;;;;10462960;28;20207;-82
2022/10/10 14:09:55;;;;;;;21.85;14.30;;;17.70;1.00;;;;;;10474743;28;20205;-85
2022/10/10 14:15:30;;;;;;;12.10;5.28;;;17.70;1.00;;;;;;10452962;28;20235;-84
2022/10/10 14:20:55;;;;;;;8.35;5.35;;;17.50;1.00;;;;;;10478177;28;20215;-83
2022/10/10 14:26:18;;;;;;;9.88;4.82;;;17.40;1.00;;;;;;10474300;28;20207;-85
2022/10/10 14:31:40;;;;;;;9.15;5.97;;;17.10;1.00;;;;;;10461118;28;20260;-82
2022/10/10 14:37:02;;;;;;;11.75;6.63;;;16.90;99.90;;;;;;10459934;28;20255;-81
2022/10/10 14:42:25;;;;;;;14.38;9.52;;;16.30;55.50;;;;;;10462534;28;20201;-82
2022/10/10 14:47:46;;;;;;;24.65;14.43;;;;;;;;;;10460517;28;20193;-83
2022/10/10 14:53:07;;;;;;;22.98;13.40;;;16.10;1.00;;;;;;10459998;28;20241;-84
2022/10/10 14:58:29;;;;;;;22.58;13.70;;;15.80;1.00;;;;;;10449340;28;20449;-83
2022/10/10 15:03:50;;;;;;;17.50;9.95;;;16.50;1.00;;;;;;10444176;28;20386;-92
2022/10/10 15:09:12;;;;;;;37.65;19.90;;;15.40;99.90;;;;;;10474000;28;20203;-87
2022/10/10 15:14:47;;;;;;;18.75;9.60;;;;;;;;;;10474377;28;20232;-80
2022/10/10 15:20:11;;;;;;;25.10;13.80;;;;;;;;;;10476956;28;20229;-83
2022/10/10 15:25:33;;;;;;;19.08;10.77;;;;;;;;;;10446516;28;20271;-84
2022/10/10 15:30:54;;;;;;;23.33;11.55;;;;;;;;;;10462978;28;20258;-85
2022/10/10 15:36:16;;;;;;;19.40;10.98;;;;;;;;;;10462341;28;20471;-88
2022/10/10 15:41:38;;;;;;;21.95;11.98;;;15.20;98.00;;;;;;10473698;28;20195;-87
2022/10/10 15:47:00;;;;;;;23.55;14.00;;;14.70;1.00;;;;;;10475352;28;20191;-87
2022/10/10 15:52:25;;;;;;;18.98;10.43;;;14.60;5.10;;;;;;10465610;28;20197;-83
2022/10/10 15:57:46;;;;;;;16.88;11.52;;;14.50;1.00;;;;;;10509989;28;20208;-84
2022/10/10 16:03:08;;;;;;;29.50;17.37;;;;;;;;;;10469340;28;20302;-88
2022/10/10 16:08:30;;;;;;;10.95;8.55;;;;;;;;;;10434639;28;20227;-88
2022/10/10 16:13:53;;;;;;;20.65;13.98;;;;;;;;;;10463432;28;20261;-87
2022/10/10 16:19:17;;;;;;;15.70;12.07;;;;;;;;;;10477372;28;20191;-84
2022/10/10 16:24:39;;;;;;;24.27;13.90;;;;;;;;;;10476994;28;20194;-86
2022/10/10 16:30:00;;;;;;;17.33;11.57;;;13.90;1.00;;;;;;10476444;28;20616;-83
2022/10/10 16:35:22;;;;;;;17.13;11.00;;;13.90;1.00;;;;;;10448531;28;20229;-84
2022/10/10 16:40:43;;;;;;;43.63;22.37;;;13.80;99.90;;;;;;10476225;28;20212;-83
2022/10/10 16:46:07;;;;;;;21.17;12.57;;;13.90;99.90;;;;;;10462393;28;20213;-82
2022/10/10 16:51:29;;;;;;;22.80;14.80;;;13.70;99.90;;;;;;10461848;28;20228;-81
2022/10/10 16:56:50;;;;;;;13.90;9.87;;;13.70;99.90;;;;;;10467198;28;20219;-82
2022/10/10 17:02:12;;;;;;;20.77;13.27;;;13.60;99.90;;;;;;10484461;28;20193;-86
2022/10/10 17:07:35;;;;;;;12.80;8.60;;;13.60;99.90;;;;;;10467649;28;20236;-85
2022/10/10 17:12:56;;;;;;;15.87;7.90;;;13.70;99.90;;;;;;10483450;28;20193;-82
2022/10/10 17:18:19;;;;;;;13.60;7.83;;;13.60;99.90;;;;;;10434566;28;20508;-86
2022/10/10 17:23:40;;;;;;;9.47;6.77;;;13.50;99.90;;;;;;10463421;28;20202;-83
2022/10/10 17:29:01;;;;;;;12.93;7.40;;;13.60;99.90;;;;;;10468501;28;20234;-83
2022/10/10 17:34:23;;;;;;;9.07;6.60;;;13.50;99.90;;;;;;10443818;28;20232;-81
2022/10/10 17:39:44;;;;;;;13.00;7.67;;;13.50;99.90;;;;;;10444097;28;20197;-82
2022/10/10 17:45:06;;;;;;;11.67;7.90;;;13.60;99.90;;;;;;10454096;28;20219;-85
2022/10/10 17:50:27;;;;;;;13.17;7.40;;;13.50;99.90;;;;;;10467624;28;20197;-86
2022/10/10 17:55:49;;;;;;;11.03;7.33;;;13.40;99.90;;;;;;10467007;28;20244;-81
2022/10/10 18:01:12;;;;;;;11.47;7.63;;;13.50;99.90;;;;;;10453104;28;20200;-86
2022/10/10 18:06:35;;;;;;;8.50;6.33;;;13.30;99.70;;;;;;10479195;28;20230;-84
2022/10/10 18:11:56;;;;;;;17.03;9.53;;;13.20;99.90;;;;;;10453119;28;20194;-87
2022/10/10 18:17:18;;;;;;;17.03;11.00;;;13.20;99.90;;;;;;10481058;28;20228;-86
2022/10/10 18:22:39;;;;;;;14.70;8.07;;;13.20;52.50;;;;;;10491670;28;20246;-82
2022/10/10 18:28:01;;;;;;;12.93;8.00;;;13.10;1.00;;;;;;10462680;28;20194;-81
2022/10/10 18:33:22;;;;;;;16.73;9.90;;;13.10;1.00;;;;;;10466163;28;20240;-83
2022/10/10 18:38:44;;;;;;;18.23;13.30;;;13.20;1.00;;;;;;10466315;28;20192;-83
2022/10/10 18:44:15;;;;;;;23.63;13.07;;;13.10;1.00;;;;;;10479926;28;20215;-86
2022/10/10 18:49:36;;;;;;;13.63;8.17;;;13.10;1.00;;;;;;10451833;28;20209;-86
2022/10/10 18:54:58;;;;;;;14.60;8.73;;;13.00;1.00;;;;;;10452120;28;20427;-83
2022/10/10 19:00:19;;;;;;;13.63;8.17;;;13.10;1.00;;;;;;10429609;28;20188;-87
2022/10/10 19:05:41;;;;;;;11.37;7.40;;;13.00;99.90;;;;;;10478366;28;20284;-85
2022/10/10 19:11:04;;;;;;;12.00;7.00;;;13.00;99.90;;;;;;10465175;28;20196;-86
2022/10/10 19:16:26;;;;;;;10.80;7.20;;;;;;;;;;10480634;28;20257;-85
2022/10/10 19:21:48;;;;;;;10.43;6.07;;;;;;;;;;10478714;28;20200;-86
2022/10/10 19:27:10;;;;;;;10.93;6.40;;;12.90;1.00;;;;;;10450505;28;20197;-86
2022/10/10 19:32:32;;;;;;;12.07;6.97;;;;;;;;;;10463820;28;20233;-84
2022/10/10 19:37:54;;;;;;;11.23;6.80;;;;;;;;;;10477950;28;20225;-82
2022/10/10 19:43:16;;;;;;;11.93;7.20;;;;;;;;;;10463878;28;20193;-83
2022/10/10 19:48:38;;;;;;;19.33;9.43;;;;;;;;;;10463683;28;20192;-82
2022/10/10 19:53:59;;;;;;;17.97;9.07;;;;;;;;;;10463745;28;20209;-86
2022/10/10 19:59:21;;;;;;;19.37;10.50;;;;;;;;;;10477637;28;20251;-83
2022/10/10 20:04:43;;;;;;;17.17;8.73;;;;;;;;;;10449185;28;20217;-82
2022/10/10 20:10:04;;;;;;;11.53;7.30;;;;;;;;;;10477866;28;20202;-86
2022/10/10 20:15:26;;;;;;;19.57;8.40;;;;;;;;;;10463560;28;20412;-82
2022/10/10 20:20:50;;;;;;;15.87;7.30;;;;;;;;;;10478352;28;20195;-81
2022/10/10 20:26:14;;;;;;;11.37;7.30;;;12.60;1.00;;;;;;10469895;28;20204;-82
2022/10/10 20:31:38;;;;;;;14.87;7.00;;;;;;;;;;10489989;28;20567;-86
2022/10/10 20:37:00;;;;;;;13.33;8.83;;;;;;;;;;10454375;28;20222;-85
2022/10/10 20:42:21;;;;;;;15.33;7.80;;;;;;;;;;10436194;28;20189;-86
2022/10/10 20:47:43;;;;;;;16.40;8.47;;;;;;;;;;10472518;28;20597;-83
2022/10/10 20:53:05;;;;;;;12.13;6.90;;;;;;;;;;10456319;28;20221;-85
2022/10/10 20:58:28;;;;;;;12.13;6.87;;;;;;;;;;10485641;28;20529;-86
2022/10/10 21:03:49;;;;;;;21.00;6.60;;;;;;;;;;10470945;28;20197;-85
2022/10/10 21:09:12;;;;;;;10.37;6.77;;;;;;;;;;10472193;28;20210;-85
2022/10/10 21:14:34;;;;;;;10.43;6.80;;;;;;;;;;10455163;28;20445;-83
2022/10/10 21:19:55;;;;;;;9.47;5.27;;;;;;;;;;10456394;28;20431;-86
2022/10/10 21:25:17;;;;;;;13.47;6.20;;;;;;;;;;10487859;28;20198;-86
2022/10/10 21:30:46;;;;;;;8.10;5.50;;;;;;;;;;10482640;28;20304;-87
2022/10/10 21:36:08;;;;;;;12.73;6.70;;;;;;;;;;10468291;28;20231;-83
2022/10/10 21:41:29;;;;;;;8.73;6.13;;;;;;;;;;10468356;28;20205;-86
2022/10/10 21:46:51;;;;;;;9.77;6.40;;;;;;;;;;10468004;28;20542;-85
2022/10/10 21:52:12;;;;;;;13.20;6.43;;;;;;;;;;10467994;28;20402;-85
2022/10/10 21:57:34;;;;;;;11.47;6.20;;;;;;;;;;10482776;28;20240;-86
2022/10/10 22:02:55;;;;;;;8.57;6.10;;;;;;;;;;10467399;28;20192;-86
2022/10/10 22:08:17;;;;;;;11.53;6.83;;;;;;;;;;10478943;28;20209;-87
2022/10/10 22:13:39;;;;;;;15.90;8.07;;;;;;;;;;10470029;28;20210;-85
2022/10/10 22:19:01;;;;;;;17.33;9.27;;;;;;;;;;10439994;28;20203;-83
2022/10/10 22:24:23;;;;;;;13.60;8.40;;;;;;;;;;10428052;28;20195;-83
2022/10/10 22:29:44;;;;;;;12.40;6.77;;;;;;;;;;10480217;28;20294;-83
2022/10/10 22:35:06;;;;;;;10.93;6.23;;;;;;;;;;10441094;28;20220;-86
2022/10/10 22:40:28;;;;;;;10.23;7.00;;;;;;;;;;10459241;28;20216;-85
2022/10/10 22:45:50;;;;;;;15.87;8.70;;;;;;;;;;10465546;28;20190;-86
2022/10/10 22:51:12;;;;;;;13.20;7.97;;;;;;;;;;10465366;28;20207;-84
2022/10/10 22:56:34;;;;;;;13.73;8.47;;;;;;;;;;10467718;28;20225;-86
2022/10/10 23:01:55;;;;;;;12.57;7.87;;;;;;;;;;10465491;28;20219;-87
2022/10/10 23:07:20;;;;;;;13.67;9.03;;;;;;;;;;10464536;28;20225;-86
2022/10/10 23:12:41;;;;;;;13.47;8.03;;;;;;;;;;10481492;28;20259;-86
2022/10/10 23:18:03;;;;;;;15.43;8.83;;;;;;;;;;10455093;28;20226;-88
2022/10/10 23:23:25;;;;;;;16.37;8.80;;;;;;;;;;10464212;28;20227;-83
2022/10/10 23:28:48;;;;;;;14.63;9.13;;;;;;;;;;10463835;28;20219;-83
2022/10/10 23:34:10;;;;;;;15.47;9.17;;;;;;;;;;10477410;28;20252;-87
2022/10/10 23:39:31;;;;;;;16.47;9.23;;;;;;;;;;10465019;28;20192;-88
2022/10/10 23:44:52;;;;;;;16.10;10.27;;;;;;;;;;10477718;28;20501;-88
2022/10/10 23:50:14;;;;;;;17.30;11.17;;;;;;;;;;10463750;28;20209;-87
2022/10/10 23:55:36;;;;;;;18.03;10.47;;;;;;;;;;10477591;28;20225;-87
